Nyk Orpheus — 7JDN — position and weather

sailwx.info

Track history (hours):
 
Tides and Currents Weather Stations Pressure Air Temp Water Temp Dewpoint Dewpoint Depression Visibility Wind Speed Wind Dir Waves Ship Positions

Nyk Orpheus

Last reported at 2015-May-23 23:33 UTC. Time now 2015-May-29 00:20 UTC.
Position N 31°27' E 032°21'.

Length 336 m; draft 13.5 m.

Type: Other ship. MMSI: 432657000.

Date/timePositionNaut miles runAvg speedWind from/ knotsBaromVisibWave heightAir tempDewpointWater temp
2015-May-23 23:33N 31°27' E 032°21'1 0.9
2015-May-23 22:33N 31°27' E 032°20'0 0.1
2015-May-23 21:33N 31°27' E 032°20'0 0.0
2015-May-23 20:33N 31°27' E 032°20'0 0.0
2015-May-23 19:33N 31°27' E 032°20'0 0.0
2015-May-23 18:33N 31°27' E 032°20'0 0.0
2015-May-23 17:33N 31°27' E 032°20'0 0.0
2015-May-23 16:33N 31°27' E 032°20'1 1.4
2015-May-23 15:33N 31°27' E 032°22'10 9.6
2015-May-23 14:33N 31°17' E 032°22'5 5.5
2015-May-23 13:33N 31°12' E 032°21'0 0.4
2015-May-23 12:31N 31°12' E 032°21'0 0.0
2015-May-23 11:31N 31°12' E 032°21'0 0.0
2015-May-23 10:28N 31°12' E 032°21'0 0.0
2015-May-23 01:28N 31°12' E 032°21'15 3.7
2015-May-22 21:31N 31°27' E 032°20'0 0.4
2015-May-22 20:32N 31°27' E 032°20'0 0.0
2015-May-22 18:17N 31°27' E 032°20'  
2015-May-20 10:33N 35°31' E 017°47'1717.2
2015-May-20 09:32N 35°36' E 017°27'1716.7
2015-May-20 08:32N 35°41' E 017°07'1716.7
2015-May-20 07:33N 35°45' E 016°47'1717.0
2015-May-20 06:33N 35°50' E 016°27'1716.9
2015-May-20 05:33N 35°56' E 016°08'1717.0
2015-May-20 04:33N 36°02' E 015°48'1717.2
2015-May-20 03:33N 36°07' E 015°28'1717.6
2015-May-20 02:33N 36°12' E 015°07'1717.3
2015-May-20 01:33N 36°17' E 014°46'1717.2
2015-May-20 00:33N 36°22' E 014°26'1717.1
2015-May-19 23:33N 36°28' E 014°06'1817.8
2015-May-19 22:33N 36°33' E 013°45'1717.4
2015-May-19 21:33N 36°38' E 013°24'1716.9
2015-May-19 20:33N 36°43' E 013°04'1717.1
2015-May-19 19:33N 36°48' E 012°44'1717.1
2015-May-19 18:33N 36°53' E 012°23'1716.8
2015-May-19 17:33N 36°58' E 012°03'1716.5
2015-May-19 16:33N 37°07' E 011°45'1616.7
2015-May-19 15:33N 37°14' E 011°27'1717.0
2015-May-19 14:33N 37°22' E 011°08'1817.5
2015-May-19 13:33N 37°31' E 010°49'1817.7
2015-May-19 12:33N 37°38' E 010°29'1917.9
2015-May-19 11:31N 37°45' E 010°07'3716.9
2015-May-19 09:20N 37°54' E 009°21'1317.0
2015-May-19 08:33N 37°57' E 009°05'1817.1
2015-May-19 07:31N 38°01' E 008°43'1717.4
2015-May-19 06:33N 38°04' E 008°22'14117.6
2015-May-18 22:32N 38°33' E 005°26'2417.5
2015-May-18 21:11N 38°38' E 004°56'2817.3
2015-May-18 19:33N 38°44' E 004°21'2217.7
2015-May-18 18:20N 38°49' E 003°54'19217.2
2015-May-18 07:10N 39°23' W 000°09'812.8
2015-May-18 06:33N 39°26' W 000°18'1 0.8
2015-May-18 05:31N 39°27' W 000°19'0 0.0
2015-May-18 04:28N 39°27' W 000°19'0 0.0
2015-May-18 03:31N 39°27' W 000°19'0 0.0
2015-May-18 02:31N 39°27' W 000°19'0 0.0
2015-May-18 01:31N 39°27' W 000°19'0 0.0
2015-May-18 00:31N 39°27' W 000°19'0 0.0
2015-May-17 23:31N 39°27' W 000°19'0 0.0
2015-May-17 22:31N 39°27' W 000°19'0 0.0
2015-May-17 21:31N 39°27' W 000°19'0 0.0
2015-May-17 20:31N 39°27' W 000°19'0 0.0
2015-May-17 19:31N 39°27' W 000°19'0 0.0
2015-May-17 18:28N 39°27' W 000°19'0 0.0
2015-May-17 17:31N 39°27' W 000°19'0 0.0
2015-May-17 16:31N 39°27' W 000°19'0 0.0
2015-May-17 15:31N 39°27' W 000°19'0 0.0
2015-May-17 14:31N 39°27' W 000°19'0 0.0
2015-May-17 13:31N 39°27' W 000°19'0 0.0
2015-May-17 12:31N 39°27' W 000°19'0 0.0
2015-May-17 11:31N 39°27' W 000°19'2 1.9
2015-May-17 10:33N 39°25' W 000°18'4 3.6
2015-May-17 09:33N 39°25' W 000°13'6 4.3
2015-May-17 08:09N 39°25' W 000°05'0 0.6
2015-May-17 07:33N 39°25' W 000°05'1 0.7
2015-May-17 06:33N 39°26' W 000°04'2 0.7
2015-May-17 04:24N 39°27' W 000°03'1 0.6
2015-May-17 03:30N 39°27' W 000°03'1 0.5
2015-May-17 01:30N 39°28' W 000°02'1 1.0
2015-May-17 00:33N 39°29' W 000°01'8 7.5
2015-May-16 23:32N 39°29' E 000°08'1211.9
2015-May-16 22:33N 39°34' E 000°22'1312.5
2015-May-16 21:33N 39°42' E 000°35'1312.6
2015-May-16 20:33N 39°47' E 000°50'1312.6
2015-May-16 19:33N 39°56' E 001°01'1313.0
2015-May-16 18:33N 40°07' E 001°10'1312.3
2015-May-16 17:28N 40°18' E 001°20'1111.6
2015-May-16 16:33N 40°27' E 001°27'1211.7
2015-May-16 15:33N 40°37' E 001°35'1212.0
2015-May-16 14:33N 40°47' E 001°44'1212.4
2015-May-16 13:33N 40°58' E 001°53'191 5.2
2015-May-15 00:32N 43°10' E 004°59'1212.1
2015-May-14 23:33N 43°22' E 004°58'6 6.0
2015-May-14 22:33N 43°25' E 004°51'0 0.0
2015-May-14 21:33N 43°25' E 004°51'0 0.0
2015-May-14 20:33N 43°25' E 004°51'0 0.0
2015-May-14 19:33N 43°25' E 004°51'0 0.0
2015-May-14 18:33N 43°25' E 004°51'0 0.0
2015-May-14 17:30N 43°25' E 004°51'0 0.0
2015-May-14 16:33N 43°25' E 004°51'0 0.0
2015-May-14 15:33N 43°25' E 004°51'0 0.0
2015-May-14 14:33N 43°25' E 004°51'0 0.0
2015-May-14 13:30N 43°25' E 004°51'0 0.0
2015-May-14 12:33N 43°25' E 004°51'0 0.0
2015-May-14 11:33N 43°25' E 004°51'0 0.0
2015-May-14 10:33N 43°25' E 004°51'0 0.0
2015-May-14 09:33N 43°25' E 004°51'0 0.0
2015-May-14 08:33N 43°25' E 004°51'0 0.0
2015-May-14 07:30N 43°25' E 004°51'0 0.0
2015-May-14 06:33N 43°25' E 004°51'0 0.0
2015-May-14 05:33N 43°25' E 004°51'0 0.0
2015-May-14 04:30N 43°25' E 004°51'0 0.0
2015-May-14 03:30N 43°25' E 004°51'0 0.0
2015-May-14 02:30N 43°25' E 004°51'0 0.0
2015-May-14 01:33N 43°25' E 004°51'0 0.0
2015-May-14 00:30N 43°25' E 004°51'  
Track history (hours):
 
Tides and Currents Weather Stations Pressure Air Temp Water Temp Dewpoint Dewpoint Depression Visibility Wind Speed Wind Dir Waves Ship Positions

Nyk Orpheus

Last reported at 2015-May-23 23:33 UTC. Time now 2015-May-29 00:20 UTC.
Position N 31°27' E 032°21'.

Length 336 m; draft 13.5 m.

Type: Other ship. MMSI: 432657000.

Date/timePositionNaut miles runAvg speedWind from/ knotsBaromVisibWave heightAir tempDewpointWater temp
2015-May-23 23:33N 31°27' E 032°21'1 0.9
2015-May-23 22:33N 31°27' E 032°20'0 0.1
2015-May-23 21:33N 31°27' E 032°20'0 0.0
2015-May-23 20:33N 31°27' E 032°20'0 0.0
2015-May-23 19:33N 31°27' E 032°20'0 0.0
2015-May-23 18:33N 31°27' E 032°20'0 0.0
2015-May-23 17:33N 31°27' E 032°20'0 0.0
2015-May-23 16:33N 31°27' E 032°20'1 1.4
2015-May-23 15:33N 31°27' E 032°22'10 9.6
2015-May-23 14:33N 31°17' E 032°22'5 5.5
2015-May-23 13:33N 31°12' E 032°21'0 0.4
2015-May-23 12:31N 31°12' E 032°21'0 0.0
2015-May-23 11:31N 31°12' E 032°21'0 0.0
2015-May-23 10:28N 31°12' E 032°21'0 0.0
2015-May-23 01:28N 31°12' E 032°21'15 3.7
2015-May-22 21:31N 31°27' E 032°20'0 0.4
2015-May-22 20:32N 31°27' E 032°20'0 0.0
2015-May-22 18:17N 31°27' E 032°20'  
2015-May-20 10:33N 35°31' E 017°47'1717.2
2015-May-20 09:32N 35°36' E 017°27'1716.7
2015-May-20 08:32N 35°41' E 017°07'1716.7
2015-May-20 07:33N 35°45' E 016°47'1717.0
2015-May-20 06:33N 35°50' E 016°27'1716.9
2015-May-20 05:33N 35°56' E 016°08'1717.0
2015-May-20 04:33N 36°02' E 015°48'1717.2
2015-May-20 03:33N 36°07' E 015°28'1717.6
2015-May-20 02:33N 36°12' E 015°07'1717.3
2015-May-20 01:33N 36°17' E 014°46'1717.2
2015-May-20 00:33N 36°22' E 014°26'1717.1
2015-May-19 23:33N 36°28' E 014°06'1817.8
2015-May-19 22:33N 36°33' E 013°45'1717.4
2015-May-19 21:33N 36°38' E 013°24'1716.9
2015-May-19 20:33N 36°43' E 013°04'1717.1
2015-May-19 19:33N 36°48' E 012°44'1717.1
2015-May-19 18:33N 36°53' E 012°23'1716.8
2015-May-19 17:33N 36°58' E 012°03'1716.5
2015-May-19 16:33N 37°07' E 011°45'1616.7
2015-May-19 15:33N 37°14' E 011°27'1717.0
2015-May-19 14:33N 37°22' E 011°08'1817.5
2015-May-19 13:33N 37°31' E 010°49'1817.7
2015-May-19 12:33N 37°38' E 010°29'1917.9
2015-May-19 11:31N 37°45' E 010°07'3716.9
2015-May-19 09:20N 37°54' E 009°21'1317.0
2015-May-19 08:33N 37°57' E 009°05'1817.1
2015-May-19 07:31N 38°01' E 008°43'1717.4
2015-May-19 06:33N 38°04' E 008°22'14117.6
2015-May-18 22:32N 38°33' E 005°26'2417.5
2015-May-18 21:11N 38°38' E 004°56'2817.3
2015-May-18 19:33N 38°44' E 004°21'2217.7
2015-May-18 18:20N 38°49' E 003°54'19217.2
2015-May-18 07:10N 39°23' W 000°09'812.8
2015-May-18 06:33N 39°26' W 000°18'1 0.8
2015-May-18 05:31N 39°27' W 000°19'0 0.0
2015-May-18 04:28N 39°27' W 000°19'0 0.0
2015-May-18 03:31N 39°27' W 000°19'0 0.0
2015-May-18 02:31N 39°27' W 000°19'0 0.0
2015-May-18 01:31N 39°27' W 000°19'0 0.0
2015-May-18 00:31N 39°27' W 000°19'0 0.0
2015-May-17 23:31N 39°27' W 000°19'0 0.0
2015-May-17 22:31N 39°27' W 000°19'0 0.0
2015-May-17 21:31N 39°27' W 000°19'0 0.0
2015-May-17 20:31N 39°27' W 000°19'0 0.0
2015-May-17 19:31N 39°27' W 000°19'0 0.0
2015-May-17 18:28N 39°27' W 000°19'0 0.0
2015-May-17 17:31N 39°27' W 000°19'0 0.0
2015-May-17 16:31N 39°27' W 000°19'0 0.0
2015-May-17 15:31N 39°27' W 000°19'0 0.0
2015-May-17 14:31N 39°27' W 000°19'0 0.0
2015-May-17 13:31N 39°27' W 000°19'0 0.0
2015-May-17 12:31N 39°27' W 000°19'0 0.0
2015-May-17 11:31N 39°27' W 000°19'2 1.9
2015-May-17 10:33N 39°25' W 000°18'4 3.6
2015-May-17 09:33N 39°25' W 000°13'6 4.3
2015-May-17 08:09N 39°25' W 000°05'0 0.6
2015-May-17 07:33N 39°25' W 000°05'1 0.7
2015-May-17 06:33N 39°26' W 000°04'2 0.7
2015-May-17 04:24N 39°27' W 000°03'1 0.6
2015-May-17 03:30N 39°27' W 000°03'1 0.5
2015-May-17 01:30N 39°28' W 000°02'1 1.0
2015-May-17 00:33N 39°29' W 000°01'8 7.5
2015-May-16 23:32N 39°29' E 000°08'1211.9
2015-May-16 22:33N 39°34' E 000°22'1312.5
2015-May-16 21:33N 39°42' E 000°35'1312.6
2015-May-16 20:33N 39°47' E 000°50'1312.6
2015-May-16 19:33N 39°56' E 001°01'1313.0
2015-May-16 18:33N 40°07' E 001°10'1312.3
2015-May-16 17:28N 40°18' E 001°20'1111.6
2015-May-16 16:33N 40°27' E 001°27'1211.7
2015-May-16 15:33N 40°37' E 001°35'1212.0
2015-May-16 14:33N 40°47' E 001°44'1212.4
2015-May-16 13:33N 40°58' E 001°53'191 5.2
2015-May-15 00:32N 43°10' E 004°59'1212.1
2015-May-14 23:33N 43°22' E 004°58'6 6.0
2015-May-14 22:33N 43°25' E 004°51'0 0.0
2015-May-14 21:33N 43°25' E 004°51'0 0.0
2015-May-14 20:33N 43°25' E 004°51'0 0.0
2015-May-14 19:33N 43°25' E 004°51'0 0.0
2015-May-14 18:33N 43°25' E 004°51'0 0.0
2015-May-14 17:30N 43°25' E 004°51'0 0.0
2015-May-14 16:33N 43°25' E 004°51'0 0.0
2015-May-14 15:33N 43°25' E 004°51'0 0.0
2015-May-14 14:33N 43°25' E 004°51'0 0.0
2015-May-14 13:30N 43°25' E 004°51'0 0.0
2015-May-14 12:33N 43°25' E 004°51'0 0.0
2015-May-14 11:33N 43°25' E 004°51'0 0.0
2015-May-14 10:33N 43°25' E 004°51'0 0.0
2015-May-14 09:33N 43°25' E 004°51'0 0.0
2015-May-14 08:33N 43°25' E 004°51'0 0.0
2015-May-14 07:30N 43°25' E 004°51'0 0.0
2015-May-14 06:33N 43°25' E 004°51'0 0.0
2015-May-14 05:33N 43°25' E 004°51'0 0.0
2015-May-14 04:30N 43°25' E 004°51'0 0.0
2015-May-14 03:30N 43°25' E 004°51'0 0.0
2015-May-14 02:30N 43°25' E 004°51'0 0.0
2015-May-14 01:33N 43°25' E 004°51'0 0.0
2015-May-14 00:30N 43°25' E 004°51'  

Dump ship's entire track history